KSRC

Searcy Municipal Airport

Searcy, Arkansas, USA
METAR KSRC 141156Z AUTO 05012KT 4SM BR OVC003 11/11 A2985 RMK AO2 RAE34 SLP118 P0000 60006 70232 T01110111 10117 20111 56003
Observed Flight Rules
Dec-14 @ 11:56 UTC (24 minutes ago) Instrument Flight Rules
Wind Visibility Clouds Conditions
50° at 12 knots 4 miles
  • Overcast at 300' AGL
  • Mist
Temperatures Readings Precipitation
Current 11°C / 52°F
Dewpoint 11°C / 52°F
Humidity 100%
Altimeter 29.85" Hg
Pressure 1011.8 hPa
Elevation 80
Current Rain 0.005
METAR KSRC 141156Z AUTO 05012KT 4SM BR OVC003 11/11 A2985 RMK AO2 RAE34 SLP118 P0000 60006 70232 T01110111 10117 20111 56003
Observed Flight Rules
Dec-14 @ 11:56 UTC
(24 minutes ago)
LIFR
Wind Visibility
50° at 12 knots 4 miles
Clouds
  • Overcast at 300' AGL
Conditions
  • Mist
Temperature Dewpoint
11°C / 52°F 11°C / 52°F
Humidity Altimeter Pressure
100% 29.85" Hg 1011.8 hPa
Current Rain
0.005